Time;durP1;ratioP1;P1;durP2;ratioP2;P2;SDS_P1;SDS_P2;PMS_P1;PMS_P2;Temp;Humidity;BMP_temperature;BMP_pressure;BME280_temperature;BME280_humidity;BME280_pressure;Samples;Min_cycle;Max_cycle;Signal;HPM_P1;HPM_P2
2022/07/17 00:00:17;;;;;;;11.23;5.32;;;11.80;99.90;;;;;;4972404;28;20130;-71
2022/07/17 00:02:44;;;;;;;11.95;5.03;;;11.80;99.90;;;;;;4990536;28;20034;-71
2022/07/17 00:05:10;;;;;;;6.72;5.25;;;11.80;99.90;;;;;;4990010;28;20082;-71
2022/07/17 00:07:36;;;;;;;5.97;4.75;;;11.70;99.90;;;;;;4985920;28;20050;-71
2022/07/17 00:10:02;;;;;;;15.75;5.75;;;11.70;99.90;;;;;;4969757;28;20543;-71
2022/07/17 00:12:27;;;;;;;7.00;4.45;;;11.70;99.90;;;;;;4965424;28;20098;-71
2022/07/17 00:14:53;;;;;;;8.35;5.30;;;11.70;99.90;;;;;;4970680;28;20051;-71
2022/07/17 00:17:21;;;;;;;10.23;5.20;;;11.60;99.90;;;;;;4970910;28;20042;-71
2022/07/17 00:19:46;;;;;;;7.93;5.18;;;11.60;99.90;;;;;;4969408;28;20122;-71
2022/07/17 00:22:12;;;;;;;8.05;5.13;;;11.60;99.90;;;;;;4970467;28;20563;-71
2022/07/17 00:24:38;;;;;;;5.70;4.63;;;11.50;99.90;;;;;;4952312;28;20525;-70
2022/07/17 00:27:04;;;;;;;7.55;4.63;;;11.50;99.90;;;;;;4970250;28;20046;-71
2022/07/17 00:29:30;;;;;;;7.05;4.93;;;11.40;99.90;;;;;;4958184;28;20551;-71
2022/07/17 00:31:55;;;;;;;9.00;4.60;;;11.40;99.90;;;;;;4965742;28;20094;-71
2022/07/17 00:34:21;;;;;;;5.78;4.32;;;11.30;99.90;;;;;;4970269;28;20433;-71
2022/07/17 00:36:46;;;;;;;8.15;4.75;;;11.40;99.90;;;;;;4969995;28;20072;-72
2022/07/17 00:39:12;;;;;;;5.35;4.70;;;11.30;99.90;;;;;;4969238;28;20050;-71
2022/07/17 00:41:38;;;;;;;6.70;4.55;;;11.30;99.90;;;;;;4939527;28;20752;-71
2022/07/17 00:44:09;;;;;;;10.30;4.93;;;11.30;99.90;;;;;;4968644;28;20050;-72
2022/07/17 00:46:35;;;;;;;8.05;4.57;;;11.30;99.90;;;;;;4952354;28;20506;-71
2022/07/17 00:49:01;;;;;;;5.68;4.05;;;11.20;99.90;;;;;;4969299;28;20050;-72
2022/07/17 00:51:27;;;;;;;6.95;4.10;;;11.30;99.90;;;;;;4967431;28;20043;-71
2022/07/17 00:53:55;;;;;;;7.80;4.82;;;11.20;99.90;;;;;;4949952;28;20561;-71
2022/07/17 00:56:22;;;;;;;4.15;3.40;;;11.20;99.90;;;;;;4970056;28;20567;-71
2022/07/17 00:58:50;;;;;;;8.55;4.63;;;11.20;99.90;;;;;;4970018;28;20106;-71
2022/07/17 01:01:15;;;;;;;7.68;4.03;;;11.20;99.90;;;;;;4969580;28;20521;-71
2022/07/17 01:03:41;;;;;;;15.73;4.53;;;11.10;99.90;;;;;;4969495;28;20093;-71
2022/07/17 01:06:07;;;;;;;10.10;4.32;;;11.10;99.90;;;;;;4952745;28;20134;-71
2022/07/17 01:08:33;;;;;;;8.77;4.38;;;11.10;99.90;;;;;;4982173;28;20067;-71
2022/07/17 01:11:00;;;;;;;5.38;4.82;;;11.00;99.90;;;;;;4970126;28;20042;-71
2022/07/17 01:13:26;;;;;;;7.60;4.78;;;11.00;99.90;;;;;;4988655;28;20054;-70
2022/07/17 01:15:52;;;;;;;6.35;4.88;;;11.00;99.90;;;;;;4987832;28;20100;-71
2022/07/17 01:18:18;;;;;;;6.78;4.40;;;10.90;99.90;;;;;;4971665;28;20054;-71
2022/07/17 01:20:46;;;;;;;6.85;4.95;;;10.90;99.90;;;;;;4971534;28;20418;-71
2022/07/17 01:23:14;;;;;;;;;;;10.90;99.90;;;;;;4959037;28;20061;-71
2022/07/17 01:25:39;;;;;;;;;;;10.80;99.90;;;;;;4968370;28;19922;-71
2022/07/17 01:28:05;;;;;;;;;;;10.80;99.90;;;;;;4961642;28;19928;-71
2022/07/17 01:30:32;;;;;;;;;;;10.80;99.90;;;;;;4969957;28;20299;-71
2022/07/17 01:32:57;;;;;;;;;;;10.70;99.90;;;;;;4971652;28;19948;-71
2022/07/17 01:35:23;;;;;;;;;;;10.70;99.90;;;;;;4988888;28;19921;-71
2022/07/17 01:37:48;;;;;;;;;;;10.70;99.90;;;;;;4989335;28;19922;-71
2022/07/17 01:40:15;;;;;;;;;;;10.60;99.90;;;;;;4988332;28;20009;-71
2022/07/17 01:42:45;;;;;;;;;;;10.60;99.90;;;;;;4989327;28;19949;-71
2022/07/17 01:45:11;;;;;;;;;;;10.60;99.90;;;;;;4971471;28;20303;-71
2022/07/17 01:47:37;;;;;;;;;;;10.60;99.90;;;;;;4971568;28;20363;-71
2022/07/17 01:50:03;;;;;;;;;;;10.60;99.90;;;;;;4988523;28;19921;-71
2022/07/17 01:52:29;;;;;;;;;;;10.50;99.90;;;;;;4971634;28;19921;-71
2022/07/17 01:54:55;;;;;;;;;;;10.50;99.90;;;;;;4971784;28;20009;-71
2022/07/17 01:57:21;;;;;;;;;;;10.50;99.90;;;;;;4984814;28;20633;-71
2022/07/17 01:59:47;;;;;;;;;;;10.50;99.90;;;;;;4987065;28;20413;-71
2022/07/17 02:02:15;;;;;;;;;;;10.40;99.90;;;;;;4988684;28;20003;-71
2022/07/17 02:04:43;;;;;;;;;;;10.30;99.90;;;;;;4970272;28;19926;-71
2022/07/17 02:07:09;;;;;;;;;;;10.20;99.90;;;;;;4982233;28;19977;-71
2022/07/17 02:09:35;;;;;;;;;;;10.20;99.90;;;;;;4951350;28;19926;-71
2022/07/17 02:12:00;;;;;;;;;;;10.20;99.90;;;;;;4951401;28;19949;-71
2022/07/17 02:14:26;;;;;;;;;;;10.20;99.90;;;;;;4951631;28;20004;-71
2022/07/17 02:16:52;;;;;;;;;;;10.10;99.90;;;;;;4971167;28;19922;-71
2022/07/17 02:19:17;;;;;;;;;;;10.10;99.90;;;;;;4969179;28;19922;-71
2022/07/17 02:21:43;;;;;;;;;;;10.10;99.90;;;;;;4971722;28;19981;-71
2022/07/17 02:24:10;;;;;;;;;;;10.10;99.90;;;;;;4951262;28;19965;-71
2022/07/17 02:26:35;;;;;;;;;;;10.00;99.90;;;;;;4970966;28;19928;-71
2022/07/17 02:29:01;;;;;;;;;;;10.00;99.90;;;;;;4971296;28;19926;-72
2022/07/17 02:31:26;;;;;;;;;;;10.00;99.90;;;;;;4953124;28;19929;-71
2022/07/17 02:33:52;;;;;;;;;;;10.00;99.90;;;;;;4972983;28;19972;-71
2022/07/17 02:36:17;;;;;;;;;;;10.00;99.90;;;;;;4975474;28;19925;-71
2022/07/17 02:38:43;;;;;;;;;;;10.00;99.90;;;;;;4967992;28;19929;-72
2022/07/17 02:41:08;;;;;;;;;;;10.00;99.90;;;;;;4952956;28;19922;-71
2022/07/17 02:43:34;;;;;;;;;;;9.90;99.90;;;;;;4968388;28;20402;-71
2022/07/17 02:46:00;;;;;;;;;;;9.90;99.90;;;;;;4968088;28;20474;-71
2022/07/17 02:48:26;;;;;;;;;;;9.90;99.90;;;;;;4950802;28;19922;-71
2022/07/17 02:50:52;;;;;;;;;;;9.90;99.90;;;;;;4982204;28;19933;-71
2022/07/17 02:53:18;;;;;;;;;;;9.90;99.90;;;;;;4943675;28;19969;-71
2022/07/17 02:55:43;;;;;;;;;;;9.90;99.90;;;;;;4967656;28;20028;-71
2022/07/17 02:58:09;;;;;;;;;;;9.90;99.90;;;;;;4951316;28;20008;-71
2022/07/17 03:00:34;;;;;;;;;;;9.90;99.90;;;;;;4967983;28;19933;-71
2022/07/17 03:03:00;;;;;;;;;;;9.90;99.90;;;;;;4951745;28;20335;-71
2022/07/17 03:05:26;;;;;;;;;;;9.90;99.90;;;;;;4968318;28;20922;-71
2022/07/17 03:07:52;;;;;;;;;;;9.90;99.90;;;;;;4980258;28;19925;-70
2022/07/17 03:10:17;;;;;;;;;;;9.90;99.90;;;;;;4987992;28;19988;-71
2022/07/17 03:12:43;;;;;;;;;;;9.90;99.90;;;;;;4967533;28;19930;-70
2022/07/17 03:15:09;;;;;;;;;;;9.90;99.90;;;;;;4984130;28;19921;-70
2022/07/17 03:17:35;;;;;;;;;;;9.80;99.90;;;;;;4991746;28;19928;-70
2022/07/17 03:20:01;;;;;;;;;;;9.80;99.90;;;;;;4985166;28;20383;-71
2022/07/17 03:22:26;;;;;;;;;;;9.80;99.90;;;;;;4973074;28;19968;-72
2022/07/17 03:24:52;;;;;;;;;;;9.80;99.90;;;;;;4969069;28;19973;-71
2022/07/17 03:27:17;;;;;;;;;;;9.80;99.90;;;;;;4984131;28;19923;-71
2022/07/17 03:29:43;;;;;;;;;;;9.80;99.90;;;;;;4972956;28;19929;-71
2022/07/17 03:32:10;;;;;;;;;;;9.80;99.90;;;;;;4972273;28;19928;-70
2022/07/17 03:34:36;;;;;;;;;;;9.80;99.90;;;;;;4989897;28;19949;-71
2022/07/17 03:37:02;;;;;;;;;;;9.70;99.90;;;;;;4991212;28;19929;-71
2022/07/17 03:39:27;;;;;;;;;;;9.70;99.90;;;;;;4989680;28;19921;-72
2022/07/17 03:41:55;;;;;;;;;;;9.70;99.90;;;;;;4972755;28;20418;-70
2022/07/17 03:44:21;;;;;;;;;;;9.70;99.90;;;;;;4990677;28;20401;-70
2022/07/17 03:46:46;;;;;;;;;;;9.70;99.90;;;;;;4991192;28;19922;-70
2022/07/17 03:49:12;;;;;;;;;;;9.70;99.90;;;;;;4990794;28;19925;-70
2022/07/17 03:51:37;;;;;;;;;;;9.70;99.90;;;;;;4988591;28;19926;-70
2022/07/17 03:54:03;;;;;;;;;;;9.70;99.90;;;;;;4990269;28;19933;-70
2022/07/17 03:56:28;;;;;;;;;;;9.70;99.90;;;;;;4989174;28;19933;-70
2022/07/17 03:58:54;;;;;;;;;;;9.60;99.90;;;;;;4968813;28;19929;-70
2022/07/17 04:01:19;;;;;;;;;;;9.60;99.90;;;;;;4970786;28;20414;-70
2022/07/17 04:03:45;;;;;;;;;;;9.60;99.90;;;;;;4973133;28;19930;-70
2022/07/17 04:06:10;;;;;;;;;;;9.60;99.90;;;;;;4989974;28;19932;-70
2022/07/17 04:08:36;;;;;;;;;;;9.70;99.90;;;;;;4972024;28;19932;-70
2022/07/17 04:11:03;;;;;;;;;;;9.60;99.90;;;;;;4990060;28;19932;-70
2022/07/17 04:13:28;;;;;;;;;;;9.60;99.90;;;;;;4989565;28;21249;-70
2022/07/17 04:15:56;;;;;;;;;;;9.60;99.90;;;;;;4989852;28;20685;-70
2022/07/17 04:18:23;;;;;;;;;;;9.60;99.90;;;;;;4988934;28;19922;-70
2022/07/17 04:20:49;;;;;;;;;;;9.60;99.90;;;;;;4989970;28;19926;-70
2022/07/17 04:23:15;;;;;;;;;;;9.60;99.90;;;;;;4990049;28;19977;-70
2022/07/17 04:25:41;;;;;;;;;;;9.60;99.90;;;;;;4990165;28;19926;-70
2022/07/17 04:28:07;;;;;;;;;;;9.60;99.90;;;;;;4986980;28;19921;-70
2022/07/17 04:30:33;;;;;;;;;;;9.60;99.90;;;;;;4971673;28;19932;-70
2022/07/17 04:32:58;;;;;;;;;;;9.60;99.90;;;;;;4972204;28;19932;-69
2022/07/17 04:35:24;;;;;;;;;;;9.70;99.90;;;;;;4988215;28;19925;-69
2022/07/17 04:37:49;;;;;;;;;;;9.70;99.90;;;;;;4987362;28;19917;-69
2022/07/17 04:40:15;;;;;;;;;;;9.70;99.90;;;;;;4955660;28;19933;-70
2022/07/17 04:42:41;;;;;;;;;;;9.80;99.90;;;;;;4990069;28;19925;-70
2022/07/17 04:45:07;;;;;;;;;;;9.90;99.90;;;;;;4972728;28;20030;-69
2022/07/17 04:47:33;;;;;;;;;;;9.90;99.90;;;;;;4994257;28;19949;-69
2022/07/17 04:49:58;;;;;;;;;;;10.00;99.90;;;;;;4986660;28;19940;-69
2022/07/17 04:52:24;;;;;;;;;;;10.00;99.90;;;;;;4987805;28;19943;-70
2022/07/17 04:54:49;;;;;;;;;;;10.10;99.90;;;;;;4972063;28;20299;-70
2022/07/17 04:57:15;;;;;;;;;;;10.10;99.90;;;;;;4972327;28;19934;-70
2022/07/17 04:59:40;;;;;;;;;;;10.20;99.90;;;;;;4993059;28;20395;-69
2022/07/17 05:02:07;;;;;;;;;;;10.30;99.90;;;;;;4985721;28;19960;-70
2022/07/17 05:04:32;;;;;;;;;;;10.30;99.90;;;;;;4988679;28;19922;-70
2022/07/17 05:06:58;;;;;;;;;;;10.40;99.90;;;;;;4968160;28;19929;-70
2022/07/17 05:09:23;;;;;;;;;;;10.40;99.90;;;;;;4969688;28;19938;-70
2022/07/17 05:11:49;;;;;;;;;;;10.50;99.90;;;;;;4965323;28;19945;-70
2022/07/17 05:14:15;;;;;;;;;;;10.60;99.90;;;;;;4968436;28;19926;-70
2022/07/17 05:16:40;;;;;;;;;;;10.70;99.90;;;;;;4982934;28;19921;-70
2022/07/17 05:19:06;;;;;;;;;;;10.70;99.90;;;;;;4970082;28;20016;-70
2022/07/17 05:21:31;;;;;;;;;;;10.80;99.90;;;;;;4964636;28;19973;-71
2022/07/17 05:23:57;;;;;;;;;;;10.90;99.90;;;;;;4960085;28;20587;-70
2022/07/17 05:26:23;;;;;;;;;;;11.00;99.90;;;;;;4966499;28;20478;-71
2022/07/17 05:28:49;;;;;;;;;;;11.00;99.90;;;;;;4969459;28;19981;-71
2022/07/17 05:31:14;;;;;;;;;;;11.10;99.90;;;;;;4968393;28;19965;-71
2022/07/17 05:33:40;;;;;;;;;;;11.20;99.90;;;;;;4967897;28;20511;-70
2022/07/17 05:36:05;;;;;;;;;;;11.30;99.90;;;;;;4968113;28;19977;-70
2022/07/17 05:38:31;;;;;;;;;;;11.40;99.90;;;;;;4968435;28;19933;-70
2022/07/17 05:40:57;;;;;;;;;;;11.40;99.90;;;;;;4967843;28;19938;-70
2022/07/17 05:43:23;;;;;;;;;;;11.50;99.90;;;;;;4968282;28;19926;-70
2022/07/17 05:45:48;;;;;;;;;;;11.60;99.90;;;;;;4963316;28;19922;-71
2022/07/17 05:48:14;;;;;;;;;;;11.70;99.90;;;;;;4967663;28;20331;-71
2022/07/17 05:50:39;;;;;;;;;;;11.70;99.90;;;;;;4968411;28;20406;-71
2022/07/17 05:53:05;;;;;;;;;;;11.80;99.90;;;;;;4968956;28;19939;-70
2022/07/17 05:55:30;;;;;;;;;;;11.90;99.90;;;;;;4969511;28;20003;-70
2022/07/17 05:57:56;;;;;;;;;;;12.00;99.90;;;;;;4968489;28;19924;-70
2022/07/17 06:00:22;;;;;;;;;;;12.10;99.90;;;;;;4968375;28;20950;-70
2022/07/17 06:02:47;;;;;;;;;;;12.10;99.90;;;;;;4969618;28;20367;-70
2022/07/17 06:05:13;;;;;;;;;;;12.20;99.90;;;;;;4969244;28;19926;-70
2022/07/17 06:07:38;;;;;;;;;;;12.30;99.90;;;;;;4972972;28;20319;-70
2022/07/17 06:10:04;;;;;;;;;;;12.40;99.90;;;;;;4963919;28;19978;-70
2022/07/17 06:12:30;;;;;;;;;;;12.40;99.90;;;;;;4968035;28;20332;-70
2022/07/17 06:14:56;;;;;;;;;;;12.60;99.90;;;;;;4967851;28;19930;-71
2022/07/17 06:17:21;;;;;;;;;;;12.60;99.90;;;;;;4968946;28;19918;-70
2022/07/17 06:19:51;;;;;;;;;;;12.70;99.90;;;;;;4966746;28;19922;-70
2022/07/17 06:22:18;;;;;;;;;;;12.70;99.90;;;;;;4962156;28;19992;-70
2022/07/17 06:24:45;;;;;;;;;;;12.80;99.90;;;;;;4968223;28;19951;-72
2022/07/17 06:27:10;;;;;;;;;;;12.90;99.90;;;;;;4969006;28;19926;-71
2022/07/17 06:29:36;;;;;;;;;;;13.00;99.90;;;;;;4953688;28;19928;-71
2022/07/17 06:32:01;;;;;;;;;;;13.10;99.90;;;;;;4968583;28;19929;-71
2022/07/17 06:34:27;;;;;;;;;;;13.10;99.90;;;;;;4967727;28;19957;-71
2022/07/17 06:36:52;;;;;;;;;;;13.20;99.90;;;;;;4968777;28;19922;-71
2022/07/17 06:39:18;;;;;;;;;;;13.40;99.90;;;;;;4966258;28;20307;-71
2022/07/17 06:41:43;;;;;;;;;;;13.50;99.90;;;;;;4966765;28;19971;-71
2022/07/17 06:44:09;;;;;;;;;;;13.70;99.90;;;;;;4957763;28;20661;-70
2022/07/17 06:46:34;;;;;;;;;;;14.00;99.90;;;;;;4967314;28;19922;-71
2022/07/17 06:49:00;;;;;;;;;;;14.20;99.90;;;;;;4967091;28;20028;-71
2022/07/17 06:51:26;;;;;;;;;;;14.40;99.90;;;;;;4987320;28;19926;-71
2022/07/17 06:53:51;;;;;;;;;;;14.70;99.90;;;;;;4970386;28;19929;-71
2022/07/17 06:56:17;;;;;;;;;;;15.10;99.90;;;;;;4967188;28;20045;-71
2022/07/17 06:58:42;;;;;;;;;;;15.40;99.90;;;;;;4971041;28;19922;-71
2022/07/17 07:01:08;;;;;;;;;;;15.70;99.90;;;;;;4970865;28;19968;-71
2022/07/17 07:03:33;;;;;;;;;;;16.10;99.90;;;;;;4970561;28;19993;-71
2022/07/17 07:05:59;;;;;;;;;;;16.20;99.90;;;;;;4964577;28;20012;-71
2022/07/17 07:08:25;;;;;;;;;;;16.50;99.90;;;;;;4973440;28;20402;-70
2022/07/17 07:10:51;;;;;;;;;;;16.60;99.90;;;;;;4991086;28;19925;-70
2022/07/17 07:13:17;;;;;;;;;;;16.80;99.90;;;;;;4991040;28;19936;-71
2022/07/17 07:15:42;;;;;;;;;;;17.00;99.90;;;;;;4990659;28;19922;-70
2022/07/17 07:18:08;;;;;;;;;;;17.00;99.90;;;;;;4990917;28;19921;-71
2022/07/17 07:20:34;;;;;;;;;;;17.10;99.90;;;;;;4973973;28;20303;-70
2022/07/17 07:23:00;;;;;;;;;;;17.00;99.90;;;;;;4990212;28;20819;-71
2022/07/17 07:25:25;;;;;;;;;;;17.00;99.90;;;;;;4967308;28;19922;-71
2022/07/17 07:27:51;;;;;;;;;;;17.00;99.90;;;;;;4973345;28;19932;-71
2022/07/17 07:30:16;;;;;;;;;;;17.00;99.90;;;;;;4983595;28;20756;-71
2022/07/17 07:32:42;;;;;;;;;;;17.00;99.90;;;;;;4968390;28;19956;-71
2022/07/17 07:35:08;;;;;;;;;;;17.00;99.90;;;;;;4973590;28;20481;-72
2022/07/17 07:37:33;;;;;;;;;;;17.10;99.90;;;;;;4990631;28;20048;-72
2022/07/17 07:39:59;;;;;;;;;;;17.10;99.90;;;;;;4973810;28;19925;-71
2022/07/17 07:42:25;;;;;;;;;;;17.10;99.90;;;;;;4969698;28;19926;-71
2022/07/17 07:44:51;;;;;;;;;;;17.20;99.90;;;;;;4988378;28;19925;-70
2022/07/17 07:47:17;;;;;;;;;;;17.20;99.90;;;;;;4990633;28;20012;-71
2022/07/17 07:49:42;;;;;;;;;;;17.30;99.90;;;;;;4990598;28;20053;-71
2022/07/17 07:52:08;;;;;;;;;;;17.30;99.90;;;;;;4989690;28;19926;-70
2022/07/17 07:54:35;;;;;;;;;;;17.40;99.90;;;;;;4989632;28;19929;-71
2022/07/17 07:57:01;;;;;;;;;;;17.50;99.90;;;;;;4984434;28;19933;-71
2022/07/17 07:59:27;;;;;;;;;;;17.60;99.90;;;;;;4984986;28;19945;-71
2022/07/17 08:01:52;;;;;;;;;;;17.60;99.90;;;;;;4987098;28;19922;-71
2022/07/17 08:04:18;;;;;;;;;;;17.70;99.90;;;;;;4958772;28;19933;-71
2022/07/17 08:06:44;;;;;;;;;;;17.80;99.90;;;;;;4983552;28;19929;-71
2022/07/17 08:09:09;;;;;;;;;;;17.80;99.90;;;;;;4969670;28;19926;-71
2022/07/17 08:11:35;;;;;;;;;;;18.00;99.90;;;;;;4974529;28;19922;-71
2022/07/17 08:14:00;;;;;;;;;;;17.90;99.90;;;;;;4972370;28;19922;-70
2022/07/17 08:16:26;;;;;;;;;;;18.00;99.90;;;;;;4967781;28;20037;-71
2022/07/17 08:18:51;;;;;;;;;;;17.90;99.90;;;;;;4950707;28;20009;-71
2022/07/17 08:21:17;;;;;;;;;;;18.00;99.90;;;;;;4970536;28;19934;-71
2022/07/17 08:23:42;;;;;;;;;;;18.10;99.90;;;;;;4966266;28;19922;-71
2022/07/17 08:26:09;;;;;;;;;;;18.20;99.90;;;;;;4978566;28;19926;-71
2022/07/17 08:28:34;;;;;;;;;;;18.40;99.90;;;;;;4952738;28;19930;-71
2022/07/17 08:31:00;;;;;;;;;;;18.60;99.90;;;;;;4953091;28;19929;-71
2022/07/17 08:33:26;;;;;;;;;;;18.90;99.90;;;;;;4970429;28;19922;-71
2022/07/17 08:35:51;;;;;;;;;;;18.90;99.90;;;;;;4951493;28;19923;-71
2022/07/17 08:38:17;;;;;;;;;;;19.10;99.90;;;;;;4970649;28;19953;-71
2022/07/17 08:40:43;;;;;;;;;;;19.30;99.90;;;;;;4959906;28;19984;-71
2022/07/17 08:43:11;;;;;;;;;;;19.60;99.90;;;;;;4951448;28;19929;-71
2022/07/17 08:45:38;;;;;;;;;;;19.90;99.90;;;;;;4955832;28;19930;-71
2022/07/17 08:48:04;;;;;;;;;;;20.00;99.90;;;;;;4949320;28;20417;-71
2022/07/17 08:50:32;;;;;;;;;;;20.30;99.90;;;;;;4970198;28;19979;-71
2022/07/17 08:52:57;;;;;;;;;;;20.50;99.90;;;;;;4970141;28;19925;-70
2022/07/17 08:55:23;;;;;;;;;;;20.80;99.90;;;;;;4970210;28;19926;-71
2022/07/17 08:57:49;;;;;;;;;;;21.20;99.90;;;;;;4970535;28;19929;-71
2022/07/17 09:00:15;;;;;;;;;;;21.50;99.90;;;;;;4979669;28;19926;-71
2022/07/17 09:02:52;;;;;;;;;;;21.60;99.90;;;;;;4970778;28;19980;-71
2022/07/17 09:05:19;;;;;;;;;;;21.40;92.90;;;;;;4970477;28;19930;-71
2022/07/17 09:07:47;;;;;;;;;;;21.10;97.00;;;;;;4964410;28;19929;-71
2022/07/17 09:10:12;;;;;;;;;;;21.20;98.10;;;;;;4988158;28;20509;-70
2022/07/17 09:12:38;;;;;;;;;;;21.20;93.70;;;;;;4988544;28;19965;-71
2022/07/17 09:15:14;;;;;;;;;;;21.50;96.70;;;;;;4985817;28;19926;-71
2022/07/17 09:17:47;;;;;;;;;;;21.50;93.90;;;;;;4986209;28;19921;-71
2022/07/17 09:20:13;;;;;;;;;;;21.80;99.90;;;;;;4984911;28;20004;-71
2022/07/17 09:22:39;;;;;;;;;;;22.10;95.10;;;;;;4987792;28;22032;-71
2022/07/17 09:25:04;;;;;;;;;;;22.40;86.30;;;;;;4985454;28;19965;-71
2022/07/17 09:27:32;;;;;;;;;;;22.40;82.40;;;;;;4989047;28;20016;-71
2022/07/17 09:29:59;;;;;;;;;;;22.60;83.30;;;;;;4986792;28;19922;-70
2022/07/17 09:32:26;;;;;;;;;;;22.90;77.90;;;;;;4985137;28;19930;-70
2022/07/17 09:34:52;;;;;;;;;;;22.90;83.50;;;;;;4983825;28;19921;-70
2022/07/17 09:37:18;;;;;;;;;;;22.70;77.00;;;;;;4982099;28;20359;-71
2022/07/17 09:39:43;;;;;;;;;;;22.90;74.80;;;;;;4988601;28;20193;-70
2022/07/17 09:42:21;;;;;;;;;;;22.90;79.70;;;;;;4987124;28;19928;-71
2022/07/17 09:45:01;;;;;;;;;;;22.80;74.20;;;;;;4987371;28;19930;-72
2022/07/17 09:47:28;;;;;;;;;;;22.70;77.70;;;;;;4980183;28;19929;-71
2022/07/17 09:49:54;;;;;;;;;;;22.60;84.40;;;;;;4966950;28;20299;-71
2022/07/17 09:52:22;;;;;;;;;;;22.60;81.90;;;;;;4977206;28;20020;-71
2022/07/17 09:54:47;;;;;;;;;;;22.70;77.50;;;;;;4988082;28;20016;-71
2022/07/17 09:57:13;;;;;;;;;;;22.40;77.40;;;;;;4991531;28;20486;-71
2022/07/17 09:59:39;;;;;;;;;;;22.40;86.30;;;;;;4992741;28;19922;-71
2022/07/17 10:02:06;;;;;;;;;;;22.30;83.00;;;;;;4988232;28;19921;-71
2022/07/17 10:04:32;;;;;;;;;;;22.30;80.20;;;;;;4987780;28;19934;-70
2022/07/17 10:06:58;;;;;;;;;;;22.60;80.30;;;;;;4978759;28;19921;-71
2022/07/17 10:09:24;;;;;;;;;;;22.60;80.10;;;;;;4960082;28;19929;-71
2022/07/17 10:11:52;;;;;;;;;;;22.90;80.00;;;;;;4958122;28;19930;-71
2022/07/17 10:14:18;;;;;;;;;;;22.50;82.00;;;;;;4952144;28;19925;-72
2022/07/17 10:16:45;;;;;;;;;;;22.60;83.20;;;;;;4967412;28;19972;-71
2022/07/17 10:19:24;;;;;;;;;;;22.50;78.30;;;;;;4960203;28;19948;-71
2022/07/17 10:22:00;;;;;;;;;;;22.60;76.30;;;;;;4941876;28;19925;-71
2022/07/17 10:24:28;;;;;;;;;;;22.60;83.40;;;;;;4953114;28;20272;-71
2022/07/17 10:26:54;;;;;;;;;;;23.00;86.50;;;;;;4976089;28;20342;-72
2022/07/17 10:29:33;;;;;;;;;;;22.90;78.50;;;;;;4975055;28;20073;-72
2022/07/17 10:31:59;;;;;;;;;;;23.00;77.60;;;;;;4949499;28;19933;-72
2022/07/17 10:34:39;;;;;;;;;;;22.70;73.80;;;;;;4960449;28;20021;-72
2022/07/17 10:37:14;;;;;;;;;;;22.60;78.50;;;;;;4962681;28;20012;-72
2022/07/17 10:39:39;;;;;;;;;;;22.50;76.80;;;;;;4955493;28;19926;-72
2022/07/17 10:42:05;;;;;;;;;;;22.80;75.10;;;;;;4972682;28;19933;-72
2022/07/17 10:44:34;;;;;;;;;;;23.00;78.20;;;;;;4968584;28;20382;-71
2022/07/17 10:46:59;;;;;;;;;;;23.10;72.60;;;;;;4977565;28;20001;-71
2022/07/17 10:49:25;;;;;;;;;;;23.30;76.20;;;;;;4975618;28;20012;-70
2022/07/17 10:51:51;;;;;;;;;;;23.10;73.20;;;;;;4971756;28;19969;-71
2022/07/17 10:54:17;;;;;;;;;;;23.30;74.90;;;;;;4966681;28;19992;-71
2022/07/17 10:56:44;;;;;;;;;;;23.30;77.80;;;;;;4971297;28;19968;-70
2022/07/17 10:59:10;;;;;;;;;;;23.30;78.80;;;;;;4951039;28;19944;-71
2022/07/17 11:01:35;;;;;;;;;;;23.40;74.70;;;;;;4977936;28;20367;-71
2022/07/17 11:04:07;;;;;;;;;;;23.00;73.00;;;;;;4970695;28;19922;-71
2022/07/17 11:06:37;;;;;;;;;;;23.10;75.30;;;;;;4955013;28;20398;-71
2022/07/17 11:09:04;;;;;;;;;;;23.10;73.70;;;;;;4970731;28;19975;-71
2022/07/17 11:11:40;;;;;;;;;;;23.10;69.20;;;;;;4973448;28;19937;-71
2022/07/17 11:14:07;;;;;;;;;;;23.20;69.40;;;;;;4973703;28;19926;-72
2022/07/17 11:16:33;;;;;;;;;;;23.30;71.70;;;;;;4980624;28;19921;-72
2022/07/17 11:18:59;;;;;;;;;;;23.40;71.40;;;;;;4985871;28;19968;-72
2022/07/17 11:21:24;;;;;;;;;;;23.40;69.50;;;;;;4991679;28;19930;-72
2022/07/17 11:23:54;;;;;;;;;;;23.30;72.60;;;;;;4994795;28;19941;-71
2022/07/17 11:26:20;;;;;;;;;;;23.30;70.90;;;;;;4974392;28;19922;-71
2022/07/17 11:28:45;;;;;;;;;;;23.40;71.10;;;;;;4965810;28;19955;-71
2022/07/17 11:31:24;;;;;;;;;;;23.40;71.90;;;;;;4987231;28;19972;-72
2022/07/17 11:33:53;;;;;;;;;;;23.70;70.90;;;;;;4972305;28;19932;-70
2022/07/17 11:36:26;;;;;;;;;;;23.90;70.00;;;;;;4989840;28;19921;-73
2022/07/17 11:38:53;;;;;;;;;;;24.20;70.90;;;;;;4973292;28;19922;-73
2022/07/17 11:41:18;;;;;;;;;;;24.10;68.10;;;;;;4980505;28;19922;-73
2022/07/17 11:43:45;;;;;;;;;;;23.90;66.60;;;;;;4991065;28;19976;-72
2022/07/17 11:46:10;;;;;;;;;;;23.90;67.60;;;;;;4971268;28;20061;-75
2022/07/17 11:48:39;;;;;;;;;;;23.70;68.10;;;;;;4972979;28;20353;-73
2022/07/17 11:51:05;;;;;;;;;;;23.70;69.70;;;;;;4973283;28;19933;-73
2022/07/17 11:53:31;;;;;;;;;;;23.80;69.00;;;;;;4987747;28;19926;-74
2022/07/17 11:57:48;;;;;;;5.32;3.00;;;23.50;69.50;;;;;;5137459;27;1224560;-74
2022/07/17 12:00:16;;;;;;;4.53;3.15;;;23.50;71.80;;;;;;5146504;27;20407;-73
2022/07/17 12:02:42;;;;;;;4.47;3.45;;;23.40;72.30;;;;;;5150728;27;20051;-73
2022/07/17 12:05:08;;;;;;;4.95;2.60;;;23.20;71.30;;;;;;5159342;27;20054;-72
2022/07/17 12:07:40;;;;;;;5.53;2.75;;;23.40;71.40;;;;;;5161004;27;20114;-72
2022/07/17 12:10:32;;;;;;;4.95;3.60;;;23.60;70.30;;;;;;5155633;27;20172;-73
2022/07/17 12:13:02;;;;;;;5.65;3.33;;;23.70;68.60;;;;;;5150641;27;20130;-73
2022/07/17 12:15:42;;;;;;;4.80;3.03;;;23.70;69.40;;;;;;5154488;27;20673;-73
2022/07/17 12:18:27;;;;;;;4.82;3.75;;;23.80;67.60;;;;;;5153847;27;20073;-72
2022/07/17 12:21:05;;;;;;;5.60;3.08;;;23.70;67.00;;;;;;5134123;27;20046;-71
2022/07/17 12:23:39;;;;;;;10.82;3.75;;;23.90;69.30;;;;;;5137271;27;20049;-72
2022/07/17 12:26:08;;;;;;;3.80;2.80;;;23.90;68.20;;;;;;5141224;27;20422;-72
2022/07/17 12:28:35;;;;;;;5.03;3.00;;;24.20;68.10;;;;;;5156368;27;20111;-72
2022/07/17 12:31:01;;;;;;;6.82;3.35;;;24.30;66.90;;;;;;5143409;27;20043;-72
2022/07/17 12:33:27;;;;;;;5.90;3.67;;;24.50;67.10;;;;;;5163086;27;20057;-73
2022/07/17 12:35:53;;;;;;;9.32;3.20;;;24.50;64.60;;;;;;5158771;27;20047;-72
2022/07/17 12:38:18;;;;;;;6.72;3.05;;;24.40;65.30;;;;;;5160019;27;20449;-73
2022/07/17 12:40:45;;;;;;;8.73;3.70;;;24.80;66.70;;;;;;5166978;27;20483;-73
2022/07/17 12:43:11;;;;;;;5.18;3.50;;;25.20;64.60;;;;;;5142700;27;20042;-73
2022/07/17 12:45:37;;;;;;;5.43;3.17;;;25.40;66.00;;;;;;5147430;27;20109;-73
2022/07/17 12:48:03;;;;;;;5.75;3.50;;;25.60;63.90;;;;;;5166401;27;20035;-73
2022/07/17 12:50:28;;;;;;;4.10;3.28;;;25.40;62.20;;;;;;5143612;27;20054;-73
2022/07/17 12:52:54;;;;;;;6.65;3.17;;;25.10;62.60;;;;;;5164006;27;20068;-73
2022/07/17 12:55:20;;;;;;;6.72;3.35;;;25.30;63.10;;;;;;5143999;27;20160;-73
2022/07/17 12:57:46;;;;;;;7.57;3.78;;;25.60;63.20;;;;;;5161978;27;20383;-73
2022/07/17 13:00:14;;;;;;;4.90;3.10;;;25.50;62.50;;;;;;5157979;27;20046;-73
2022/07/17 13:02:40;;;;;;;3.47;3.08;;;25.30;61.80;;;;;;5162600;27;20050;-73
2022/07/17 13:05:07;;;;;;;8.88;3.67;;;25.30;61.10;;;;;;5145179;27;20957;-73
2022/07/17 13:07:33;;;;;;;5.60;4.28;;;25.20;61.20;;;;;;5157572;27;20043;-73
2022/07/17 13:09:59;;;;;;;7.68;3.20;;;25.10;60.80;;;;;;5130226;27;20047;-73
2022/07/17 13:12:25;;;;;;;6.22;3.92;;;25.30;61.30;;;;;;5140340;27;20058;-73
2022/07/17 13:14:50;;;;;;;5.35;3.80;;;25.30;60.00;;;;;;5124890;27;20529;-73
2022/07/17 13:17:16;;;;;;;6.38;4.22;;;25.20;60.60;;;;;;5118470;27;20051;-73
2022/07/17 13:19:42;;;;;;;5.45;3.63;;;25.50;60.60;;;;;;5132243;27;20046;-72
2022/07/17 13:22:07;;;;;;;5.50;4.35;;;25.60;60.80;;;;;;5147770;27;20433;-72
2022/07/17 13:24:33;;;;;;;7.97;4.63;;;25.60;58.50;;;;;;5148011;27;20042;-72
2022/07/17 13:27:00;;;;;;;5.53;3.88;;;25.80;58.10;;;;;;5150285;27;20147;-72
2022/07/17 13:29:26;;;;;;;4.85;3.97;;;25.70;58.20;;;;;;5145937;27;20039;-72
2022/07/17 13:31:53;;;;;;;7.75;4.20;;;25.80;57.90;;;;;;5124015;27;20054;-73
2022/07/17 13:34:18;;;;;;;7.60;4.30;;;25.90;58.40;;;;;;5138541;27;20050;-72
2022/07/17 13:36:44;;;;;;;6.22;4.28;;;26.10;58.10;;;;;;5149872;27;20407;-70
2022/07/17 13:39:10;;;;;;;9.48;4.63;;;25.90;57.80;;;;;;5132507;27;20155;-70
2022/07/17 13:41:37;;;;;;;5.88;4.25;;;26.00;57.00;;;;;;5132921;27;20510;-71
2022/07/17 13:44:05;;;;;;;7.22;4.47;;;25.80;57.30;;;;;;5150838;27;20456;-71
2022/07/17 13:46:31;;;;;;;5.65;3.75;;;25.70;58.40;;;;;;5121825;27;20116;-71
2022/07/17 13:48:57;;;;;;;5.57;4.30;;;25.60;58.00;;;;;;5136068;27;20043;-70
2022/07/17 13:51:23;;;;;;;6.45;4.40;;;25.70;57.80;;;;;;5149935;27;20145;-70